createdAt,value
2023-08-11T00:00:44.926Z,42.03
2023-08-11T00:03:51.410Z,33.95
2023-08-11T00:06:58.905Z,39.30
2023-08-11T00:13:20.936Z,39.90
2023-08-11T00:16:26.680Z,34.58
2023-08-11T00:19:32.343Z,29.48
2023-08-11T00:22:38.216Z,33.42
2023-08-11T00:25:43.475Z,38.45
2023-08-11T00:28:49.417Z,35.70
2023-08-11T00:31:56.011Z,32.65
2023-08-11T00:35:01.700Z,37.48
2023-08-11T00:38:00.708Z,39.73
2023-08-11T00:41:07.419Z,31.33
2023-08-11T00:44:12.560Z,32.83
2023-08-11T00:47:19.063Z,31.70
2023-08-11T00:50:26.626Z,31.20
2023-08-11T00:53:33.087Z,25.97
2023-08-11T00:56:38.347Z,28.75
2023-08-11T00:59:43.236Z,30.23
2023-08-11T01:02:50.457Z,33.23
2023-08-11T01:05:59.650Z,41.10
2023-08-11T01:09:20.182Z,30.32
2023-08-11T01:12:56.413Z,41.42
2023-08-11T01:16:09.171Z,37.15
2023-08-11T01:19:15.756Z,42.43
2023-08-11T01:22:29.227Z,28.10
2023-08-11T01:25:35.323Z,37.48
2023-08-11T01:28:41.072Z,32.50
2023-08-11T01:31:48.237Z,29.30
2023-08-11T01:34:55.516Z,26.25
2023-08-11T01:38:03.916Z,30.08
2023-08-11T01:41:09.244Z,27.85
2023-08-11T01:44:15.131Z,23.35
2023-08-11T01:47:20.812Z,16.30
2023-08-11T01:50:29.533Z,20.32
2023-08-11T01:53:36.325Z,16.25
2023-08-11T01:56:42.964Z,16.73
2023-08-11T01:59:49.423Z,19.00
2023-08-11T02:02:57.236Z,15.20
2023-08-11T02:06:06.456Z,19.07
2023-08-11T02:09:20.904Z,17.60
2023-08-11T02:12:26.572Z,13.30
2023-08-11T02:15:31.598Z,15.75
2023-08-11T02:18:38.231Z,23.50
2023-08-11T02:21:46.026Z,16.42
2023-08-11T02:24:51.126Z,24.07
2023-08-11T02:27:58.116Z,18.62
2023-08-11T02:31:03.619Z,15.58
2023-08-11T02:34:11.839Z,19.85
2023-08-11T02:37:18.427Z,16.62
2023-08-11T02:40:27.903Z,14.63
2023-08-11T02:43:34.831Z,12.70
2023-08-11T02:46:39.596Z,18.05
2023-08-11T02:49:48.219Z,19.80
2023-08-11T02:52:53.954Z,20.23
2023-08-11T02:56:00.712Z,25.95
2023-08-11T02:59:06.139Z,20.77
2023-08-11T03:02:13.092Z,19.37
2023-08-11T03:05:20.091Z,21.60
2023-08-11T03:08:27.185Z,20.25
2023-08-11T03:11:32.793Z,26.60
2023-08-11T03:14:37.893Z,21.00
2023-08-11T03:17:44.158Z,19.40
2023-08-11T03:20:49.861Z,21.85
2023-08-11T03:23:55.462Z,21.50
2023-08-11T03:27:01.244Z,24.85
2023-08-11T03:30:07.150Z,19.48
2023-08-11T03:33:12.617Z,18.87
2023-08-11T03:36:22.643Z,24.37
2023-08-11T03:39:28.666Z,22.07
2023-08-11T03:42:34.228Z,17.07
2023-08-11T03:45:40.886Z,23.87
2023-08-11T03:48:46.562Z,17.25
2023-08-11T03:51:53.172Z,19.67
2023-08-11T03:55:00.061Z,19.92
2023-08-11T03:58:05.466Z,23.25
2023-08-11T04:01:12.486Z,20.10
2023-08-11T04:04:18.556Z,16.93
2023-08-11T04:07:24.422Z,19.80
2023-08-11T04:10:34.389Z,23.70
2023-08-11T04:13:40.494Z,19.25
2023-08-11T04:16:45.788Z,21.70
2023-08-11T04:19:51.275Z,24.43
2023-08-11T04:22:58.746Z,24.65
2023-08-11T04:26:06.744Z,24.05
2023-08-11T04:29:11.795Z,25.02
2023-08-11T04:32:18.261Z,19.57
2023-08-11T04:35:24.218Z,25.00
2023-08-11T04:38:30.282Z,20.52
2023-08-11T04:41:36.340Z,21.77
2023-08-11T04:44:42.439Z,20.57
2023-08-11T04:47:53.050Z,21.50
2023-08-11T04:50:59.924Z,21.62
2023-08-11T04:54:08.747Z,19.82
2023-08-11T04:57:14.992Z,19.17
2023-08-11T05:00:24.435Z,18.32
2023-08-11T05:03:30.438Z,19.73
2023-08-11T05:06:36.822Z,25.15
2023-08-11T05:09:46.361Z,23.30
2023-08-11T05:12:51.278Z,21.33
2023-08-11T05:15:58.246Z,22.48
2023-08-11T05:19:03.925Z,17.10
2023-08-11T05:22:09.456Z,16.25
2023-08-11T05:25:15.093Z,19.32
2023-08-11T05:28:20.957Z,25.55
2023-08-11T05:31:26.816Z,22.25
2023-08-11T05:34:32.990Z,18.80
2023-08-11T05:37:39.560Z,18.70
2023-08-11T05:40:45.950Z,21.50
2023-08-11T05:43:52.499Z,17.52
2023-08-11T05:46:58.747Z,19.87
2023-08-11T05:50:04.624Z,25.15
2023-08-11T05:53:11.374Z,17.45
2023-08-11T05:56:18.918Z,19.62
2023-08-11T05:59:24.721Z,17.80
2023-08-11T06:02:31.421Z,29.70
2023-08-11T06:05:37.038Z,22.25
2023-08-11T06:08:44.478Z,17.35
2023-08-11T06:11:50.366Z,19.80
2023-08-11T06:14:55.822Z,16.85
2023-08-11T06:18:06.662Z,18.62
2023-08-11T06:21:14.344Z,15.72
2023-08-11T06:24:21.947Z,18.05
2023-08-11T06:27:31.690Z,21.17
2023-08-11T06:30:37.927Z,19.32
2023-08-11T06:33:43.992Z,22.90
2023-08-11T06:36:50.048Z,20.82
2023-08-11T06:39:55.962Z,22.82
2023-08-11T06:43:02.080Z,20.72
2023-08-11T06:46:11.099Z,23.87
2023-08-11T06:49:23.257Z,22.15
2023-08-11T06:52:29.754Z,24.32
2023-08-11T06:55:34.962Z,22.10
2023-08-11T06:58:40.397Z,20.82
2023-08-11T07:01:46.830Z,22.32
2023-08-11T07:04:52.758Z,22.73
2023-08-11T07:07:59.586Z,24.05
2023-08-11T07:11:05.423Z,21.42
2023-08-11T07:14:11.897Z,20.17
2023-08-11T07:17:17.588Z,19.77
2023-08-11T07:20:23.714Z,28.07
2023-08-11T07:23:29.373Z,21.25
2023-08-11T07:26:34.787Z,24.32
2023-08-11T07:29:40.759Z,25.17
2023-08-11T07:32:46.799Z,22.58
2023-08-11T07:35:53.075Z,28.02
2023-08-11T07:39:12.761Z,27.42
2023-08-11T07:42:08.690Z,29.15
2023-08-11T07:45:15.224Z,27.22
2023-08-11T07:48:20.213Z,27.22
2023-08-11T07:51:25.413Z,29.35
2023-08-11T07:54:31.494Z,26.65
2023-08-11T07:57:37.634Z,24.15
2023-08-11T08:00:43.655Z,27.30
2023-08-11T08:03:49.211Z,28.42
2023-08-11T08:06:55.021Z,29.72
2023-08-11T08:10:00.982Z,23.30
2023-08-11T08:13:08.106Z,28.07
2023-08-11T08:16:13.879Z,24.43
2023-08-11T08:19:20.254Z,23.60
2023-08-11T08:22:27.929Z,28.47
2023-08-11T08:25:32.955Z,29.40
2023-08-11T08:28:38.855Z,29.52
2023-08-11T08:31:45.254Z,29.25
2023-08-11T08:34:51.425Z,30.12
2023-08-11T08:37:57.888Z,27.15
2023-08-11T08:41:04.007Z,27.37
2023-08-11T08:44:10.893Z,33.48
2023-08-11T08:47:16.994Z,29.20
2023-08-11T08:50:23.638Z,28.50
2023-08-11T08:53:29.267Z,39.92
2023-08-11T08:56:34.983Z,31.20
2023-08-11T08:59:41.807Z,25.27
2023-08-11T09:02:47.907Z,20.12
2023-08-11T09:05:55.664Z,29.40
2023-08-11T09:09:03.341Z,25.43
2023-08-11T09:12:12.772Z,24.10
2023-08-11T09:15:27.005Z,24.35
2023-08-11T09:18:27.134Z,30.80
2023-08-11T09:21:35.240Z,33.10
2023-08-11T09:24:40.353Z,32.15
2023-08-11T09:27:47.179Z,31.37
2023-08-11T09:30:55.861Z,29.20
2023-08-11T09:34:01.778Z,36.23
2023-08-11T09:37:07.824Z,28.87
2023-08-11T09:40:13.520Z,24.05
2023-08-11T09:43:19.141Z,19.45
2023-08-11T09:46:27.842Z,18.55
2023-08-11T09:49:31.931Z,23.02
2023-08-11T09:52:37.864Z,24.00
2023-08-11T09:55:44.517Z,22.90
2023-08-11T09:58:53.623Z,24.70
2023-08-11T10:02:00.319Z,21.40
2023-08-11T10:05:14.949Z,24.55
2023-08-11T10:08:21.653Z,24.45
2023-08-11T10:11:28.021Z,26.27
2023-08-11T10:14:35.005Z,24.05
2023-08-11T10:17:40.958Z,10.93
2023-08-11T10:20:47.680Z,9.93
2023-08-11T10:23:52.744Z,10.38
2023-08-11T10:26:59.127Z,9.30
2023-08-11T10:30:05.200Z,9.60
2023-08-11T10:33:22.041Z,14.23
2023-08-11T10:36:22.013Z,9.48
2023-08-11T10:39:21.707Z,10.28
2023-08-11T10:42:31.395Z,11.57
2023-08-11T10:45:37.449Z,14.33
2023-08-11T10:48:43.796Z,10.05
2023-08-11T10:51:52.573Z,16.55
2023-08-11T10:55:06.513Z,13.83
2023-08-11T10:58:30.624Z,11.65
2023-08-11T11:01:36.316Z,12.78
2023-08-11T11:04:48.354Z,17.95
2023-08-11T11:07:54.686Z,13.78
2023-08-11T11:11:00.474Z,15.75
2023-08-11T11:14:07.040Z,12.00
2023-08-11T11:17:16.407Z,12.03
2023-08-11T11:20:23.741Z,11.88
2023-08-11T11:23:29.158Z,12.90
2023-08-11T11:26:42.946Z,12.35
2023-08-11T11:29:47.746Z,12.07
2023-08-11T11:32:57.270Z,11.03
2023-08-11T11:36:04.188Z,9.88
2023-08-11T11:39:11.052Z,10.00
2023-08-11T11:42:25.975Z,11.08
2023-08-11T11:45:31.529Z,14.10
2023-08-11T11:48:31.123Z,13.68
2023-08-11T11:51:24.015Z,15.75
2023-08-11T11:54:30.808Z,12.20
2023-08-11T11:57:37.666Z,9.38
2023-08-11T12:00:43.480Z,10.10
2023-08-11T12:03:50.774Z,15.55
2023-08-11T12:06:58.000Z,11.80
2023-08-11T12:10:01.603Z,13.75
2023-08-11T12:13:09.103Z,9.53
2023-08-11T12:16:15.559Z,12.33
2023-08-11T12:19:22.327Z,12.75
2023-08-11T12:22:29.021Z,13.43
2023-08-11T12:25:35.015Z,14.35
2023-08-11T12:28:41.391Z,11.80
2023-08-11T12:31:46.394Z,12.43
2023-08-11T12:34:51.511Z,9.40
2023-08-11T12:37:57.379Z,10.98
2023-08-11T12:41:03.766Z,7.40
2023-08-11T12:44:09.867Z,9.33
2023-08-11T12:47:15.600Z,7.42
2023-08-11T12:50:22.999Z,9.25
2023-08-11T12:53:28.074Z,9.10
2023-08-11T12:56:33.818Z,11.12
2023-08-11T12:59:39.560Z,8.68
2023-08-11T13:02:46.080Z,7.03
2023-08-11T13:05:51.626Z,11.75
2023-08-11T13:08:58.475Z,8.38
2023-08-11T13:12:04.616Z,10.05
2023-08-11T13:15:10.148Z,10.95
2023-08-11T13:18:15.854Z,6.78
2023-08-11T13:21:22.294Z,6.80
2023-08-11T13:24:28.142Z,7.25
2023-08-11T13:27:34.625Z,10.13
2023-08-11T13:30:43.465Z,7.75
2023-08-11T13:33:48.123Z,7.95
2023-08-11T13:36:53.951Z,7.50
2023-08-11T13:39:59.455Z,9.00
2023-08-11T13:43:04.845Z,8.43
2023-08-11T13:46:11.390Z,5.05
2023-08-11T13:49:10.557Z,7.83
2023-08-11T13:52:15.789Z,7.87
2023-08-11T13:55:20.714Z,6.67
2023-08-11T13:58:26.586Z,10.20
2023-08-11T14:01:32.661Z,7.65
2023-08-11T14:04:39.671Z,12.20
2023-08-11T14:07:45.904Z,8.30
2023-08-11T14:10:52.275Z,7.85
2023-08-11T14:13:59.223Z,8.03
2023-08-11T14:17:05.545Z,6.37
2023-08-11T14:20:11.000Z,7.65
2023-08-11T14:23:17.257Z,9.90
2023-08-11T14:26:24.555Z,6.75
2023-08-11T14:29:30.254Z,9.68
2023-08-11T14:32:36.716Z,11.10
2023-08-11T14:35:45.607Z,9.75
2023-08-11T14:38:51.258Z,13.50
2023-08-11T14:41:57.217Z,12.30
2023-08-11T14:45:02.700Z,11.68
2023-08-11T14:48:08.677Z,9.70
2023-08-11T14:51:13.955Z,10.05
2023-08-11T14:54:19.323Z,11.15
2023-08-11T14:57:26.205Z,11.15
2023-08-11T15:00:32.786Z,13.58
2023-08-11T15:03:41.156Z,9.10
2023-08-11T15:06:46.790Z,10.75
2023-08-11T15:09:53.501Z,8.80
2023-08-11T15:13:00.673Z,9.83
2023-08-11T15:16:06.698Z,12.20
2023-08-11T15:19:12.793Z,10.20
2023-08-11T15:22:18.102Z,10.53
2023-08-11T15:25:23.839Z,9.40
2023-08-11T15:28:30.036Z,9.65
2023-08-11T15:31:35.992Z,9.70
2023-08-11T15:34:42.518Z,8.43
2023-08-11T15:37:47.013Z,9.20
2023-08-11T15:40:53.474Z,9.83
2023-08-11T15:43:52.866Z,11.83
2023-08-11T15:46:59.367Z,8.55
2023-08-11T15:50:04.202Z,11.83
2023-08-11T15:53:10.821Z,8.33
2023-08-11T15:56:15.803Z,8.33
2023-08-11T15:59:21.794Z,7.03
2023-08-11T16:02:29.023Z,8.43
2023-08-11T16:05:35.368Z,10.88
2023-08-11T16:08:42.362Z,8.73
2023-08-11T16:11:49.879Z,8.15
2023-08-11T16:14:55.836Z,8.50
2023-08-11T16:18:02.999Z,9.85
2023-08-11T16:21:10.990Z,10.58
2023-08-11T16:24:16.659Z,10.00
2023-08-11T16:27:22.506Z,10.75
2023-08-11T16:30:28.735Z,10.23
2023-08-11T16:33:35.475Z,7.47
2023-08-11T16:36:42.011Z,12.80
2023-08-11T16:39:47.712Z,9.18
2023-08-11T16:42:47.456Z,13.25
2023-08-11T16:45:53.155Z,12.75
2023-08-11T16:48:58.771Z,12.40
2023-08-11T16:52:04.881Z,13.50
2023-08-11T16:55:11.396Z,11.65
2023-08-11T16:58:16.212Z,16.10
2023-08-11T17:01:22.310Z,12.47
2023-08-11T17:04:27.962Z,12.53
2023-08-11T17:07:33.626Z,12.03
2023-08-11T17:10:53.082Z,11.80
2023-08-11T17:13:59.045Z,14.35
2023-08-11T17:17:04.988Z,11.93
2023-08-11T17:20:12.669Z,13.62
2023-08-11T17:23:19.337Z,15.58
2023-08-11T17:26:24.522Z,17.05
2023-08-11T17:29:31.376Z,11.63
2023-08-11T17:32:37.607Z,22.25
2023-08-11T17:35:43.235Z,16.48
2023-08-11T17:38:49.625Z,15.43
2023-08-11T17:41:55.417Z,14.63
2023-08-11T17:45:00.930Z,14.05
2023-08-11T17:48:07.741Z,14.78
2023-08-11T17:51:14.410Z,13.75
2023-08-11T17:54:20.884Z,13.62
2023-08-11T17:57:26.373Z,15.63
2023-08-11T18:00:32.397Z,20.60
2023-08-11T18:03:36.846Z,17.35
2023-08-11T18:06:35.276Z,17.37
2023-08-11T18:09:44.060Z,18.02
2023-08-11T18:12:50.612Z,19.35
2023-08-11T18:15:56.409Z,20.50
2023-08-11T18:19:02.866Z,23.05
2023-08-11T18:22:08.888Z,21.90
2023-08-11T18:25:16.064Z,21.90
2023-08-11T18:28:22.609Z,21.25
2023-08-11T18:31:27.824Z,21.85
2023-08-11T18:34:33.833Z,27.05
2023-08-11T18:37:39.747Z,25.32
2023-08-11T18:40:44.591Z,26.82
2023-08-11T18:43:49.862Z,21.73
2023-08-11T18:46:56.745Z,19.67
2023-08-11T18:50:02.557Z,19.70
2023-08-11T18:53:08.267Z,18.60
2023-08-11T18:56:14.252Z,19.27
2023-08-11T18:59:20.532Z,17.25
2023-08-11T19:02:27.147Z,21.87
2023-08-11T19:05:33.554Z,18.17
2023-08-11T19:08:40.187Z,20.60
2023-08-11T19:11:46.435Z,23.25
2023-08-11T19:14:52.227Z,17.95
2023-08-11T19:17:57.851Z,18.90
2023-08-11T19:21:03.416Z,22.75
2023-08-11T19:24:08.546Z,22.82
2023-08-11T19:27:14.988Z,25.32
2023-08-11T19:30:20.868Z,26.42
2023-08-11T19:33:26.189Z,22.70
2023-08-11T19:36:32.991Z,24.02
2023-08-11T19:39:39.399Z,20.88
2023-08-11T19:42:45.184Z,24.10
2023-08-11T19:45:50.714Z,26.95
2023-08-11T19:48:57.131Z,22.62
2023-08-11T19:52:02.593Z,22.62
2023-08-11T19:55:08.345Z,23.95
2023-08-11T19:58:13.568Z,24.23
2023-08-11T20:01:20.248Z,23.45
2023-08-11T20:04:20.339Z,26.50
2023-08-11T20:07:26.808Z,29.85
2023-08-11T20:10:45.754Z,30.43
2023-08-11T20:13:51.308Z,33.75
2023-08-11T20:16:57.864Z,40.55
2023-08-11T20:20:04.822Z,30.65
2023-08-11T20:23:10.660Z,22.20
2023-08-11T20:26:16.551Z,24.40
2023-08-11T20:29:15.517Z,22.22
2023-08-11T20:32:22.327Z,18.98
2023-08-11T20:35:28.072Z,19.45
2023-08-11T20:38:38.870Z,21.77
2023-08-11T20:41:43.174Z,17.70
2023-08-11T20:44:49.389Z,17.37
2023-08-11T20:47:55.259Z,12.95
2023-08-11T20:51:06.710Z,8.65
2023-08-11T20:54:12.231Z,4.70
2023-08-11T20:57:18.254Z,2.25
2023-08-11T21:00:24.808Z,2.67
2023-08-11T21:03:30.872Z,6.17
2023-08-11T21:06:36.166Z,2.95
2023-08-11T21:09:43.210Z,3.52
2023-08-11T21:12:49.072Z,2.17
2023-08-11T21:15:55.589Z,9.85
2023-08-11T21:19:02.177Z,4.12
2023-08-11T21:22:08.638Z,3.72
2023-08-11T21:25:15.397Z,6.10
2023-08-11T21:28:22.069Z,3.12
2023-08-11T21:31:28.704Z,2.35
2023-08-11T21:34:34.428Z,1.15
2023-08-11T21:37:40.442Z,2.10
2023-08-11T21:40:46.441Z,4.20
2023-08-11T21:43:53.041Z,2.62
2023-08-11T21:46:58.407Z,1.67
2023-08-11T21:50:04.794Z,3.98
2023-08-11T21:53:22.539Z,2.50
2023-08-11T21:56:17.567Z,4.83
2023-08-11T21:59:23.740Z,5.42
2023-08-11T22:02:29.364Z,2.47
2023-08-11T22:05:45.981Z,3.98
2023-08-11T22:08:51.747Z,11.53
2023-08-11T22:11:51.450Z,4.67
2023-08-11T22:14:58.762Z,4.97
2023-08-11T22:18:03.801Z,8.53
2023-08-11T22:21:12.480Z,12.33
2023-08-11T22:24:27.127Z,8.55
2023-08-11T22:27:25.574Z,10.32
2023-08-11T22:30:31.683Z,15.40
2023-08-11T22:33:37.710Z,14.63
2023-08-11T22:36:42.954Z,25.12
2023-08-11T22:39:48.531Z,17.62
2023-08-11T22:42:54.753Z,20.40
2023-08-11T22:46:01.134Z,20.23
2023-08-11T22:49:07.118Z,15.83
2023-08-11T22:52:13.035Z,17.00
2023-08-11T22:55:19.687Z,17.92
2023-08-11T22:58:25.545Z,11.33
2023-08-11T23:01:31.953Z,13.43
2023-08-11T23:04:38.405Z,13.75
2023-08-11T23:07:44.858Z,9.35
2023-08-11T23:10:50.641Z,9.83
2023-08-11T23:13:56.484Z,9.45
2023-08-11T23:17:02.238Z,7.60
2023-08-11T23:20:08.960Z,14.47
2023-08-11T23:23:15.583Z,7.22
2023-08-11T23:26:21.405Z,8.80
2023-08-11T23:29:27.507Z,8.43
2023-08-11T23:32:34.204Z,10.70
2023-08-11T23:35:40.571Z,10.80
2023-08-11T23:38:47.476Z,10.25
2023-08-11T23:41:53.572Z,13.72
2023-08-11T23:44:59.256Z,13.22
2023-08-11T23:48:04.790Z,9.88
2023-08-11T23:51:11.291Z,8.78
2023-08-11T23:54:16.256Z,9.60
2023-08-11T23:57:23.519Z,10.25
